createdAt,value
2022-11-29T00:00:53.435Z,10.24
2022-11-29T00:02:07.046Z,10.25
2022-11-29T00:03:08.661Z,10.26
2022-11-29T00:04:11.858Z,10.27
2022-11-29T00:05:13.463Z,10.27
2022-11-29T00:06:18.367Z,10.26
2022-11-29T00:07:19.984Z,10.26
2022-11-29T00:08:24.432Z,10.26
2022-11-29T00:09:27.643Z,10.25
2022-11-29T00:10:30.187Z,10.25
2022-11-29T00:11:52.265Z,10.25
2022-11-29T00:12:54.813Z,10.26
2022-11-29T00:13:56.317Z,10.25
2022-11-29T00:14:58.811Z,10.27
2022-11-29T00:16:04.451Z,10.28
2022-11-29T00:17:06.951Z,10.28
2022-11-29T00:18:08.765Z,10.29
2022-11-29T00:19:13.168Z,10.28
2022-11-29T00:20:15.642Z,10.30
2022-11-29T00:21:17.164Z,10.30
2022-11-29T00:22:19.739Z,10.31
2022-11-29T00:23:21.503Z,10.31
2022-11-29T00:24:24.254Z,10.32
2022-11-29T00:25:27.409Z,10.32
2022-11-29T00:26:29.912Z,10.32
2022-11-29T00:27:31.663Z,10.31
2022-11-29T00:28:34.936Z,10.32
2022-11-29T00:29:36.433Z,10.30
2022-11-29T00:30:38.991Z,10.31
2022-11-29T00:31:41.343Z,10.30
2022-11-29T00:32:43.910Z,10.31
2022-11-29T00:33:45.590Z,10.30
2022-11-29T00:34:48.367Z,10.29
2022-11-29T00:35:50.299Z,10.29
2022-11-29T00:36:53.219Z,10.28
2022-11-29T00:37:54.942Z,10.27
2022-11-29T00:38:57.815Z,10.27
2022-11-29T00:40:00.278Z,10.27
2022-11-29T00:41:03.390Z,10.28
2022-11-29T00:42:06.006Z,10.27
2022-11-29T00:43:07.550Z,10.27
2022-11-29T00:44:13.933Z,10.26
2022-11-29T00:45:19.373Z,10.27
2022-11-29T00:46:20.942Z,10.27
2022-11-29T00:47:23.591Z,10.24
2022-11-29T00:48:25.455Z,10.25
2022-11-29T00:49:27.905Z,10.24
2022-11-29T00:50:29.407Z,10.24
2022-11-29T00:51:31.943Z,10.23
2022-11-29T00:52:34.466Z,10.24
2022-11-29T00:53:36.554Z,10.24
2022-11-29T00:54:39.035Z,10.24
2022-11-29T00:55:40.660Z,10.23
2022-11-29T00:56:44.503Z,10.23
2022-11-29T00:57:46.034Z,10.23
2022-11-29T00:58:49.323Z,10.23
2022-11-29T00:59:51.782Z,10.23
2022-11-29T01:00:54.420Z,10.22
2022-11-29T01:01:57.204Z,10.21
2022-11-29T01:02:58.767Z,10.21
2022-11-29T01:04:01.385Z,10.21
2022-11-29T01:05:02.978Z,10.20
2022-11-29T01:06:07.533Z,10.20
2022-11-29T01:07:10.050Z,10.21
2022-11-29T01:08:12.277Z,10.21
2022-11-29T01:09:14.772Z,10.23
2022-11-29T01:10:17.143Z,10.23
2022-11-29T01:11:22.347Z,10.24
2022-11-29T01:12:25.214Z,10.23
2022-11-29T01:13:27.688Z,10.22
2022-11-29T01:14:30.260Z,10.22
2022-11-29T01:15:31.899Z,10.23
2022-11-29T01:16:34.820Z,10.23
2022-11-29T01:17:38.760Z,10.23
2022-11-29T01:18:41.707Z,10.24
2022-11-29T01:19:49.341Z,10.25
2022-11-29T01:20:58.019Z,10.25
2022-11-29T01:22:00.518Z,10.25
2022-11-29T01:23:02.047Z,10.22
2022-11-29T01:24:05.074Z,10.23
2022-11-29T01:25:07.947Z,10.23
2022-11-29T01:26:12.799Z,10.23
2022-11-29T01:27:14.410Z,10.22
2022-11-29T01:28:18.252Z,10.21
2022-11-29T01:29:19.758Z,10.22
2022-11-29T01:30:22.294Z,10.23
2022-11-29T01:31:26.069Z,10.24
2022-11-29T01:32:28.600Z,10.23
2022-11-29T01:33:30.123Z,10.22
2022-11-29T01:34:32.626Z,10.20
2022-11-29T01:35:34.114Z,10.20
2022-11-29T01:36:36.577Z,10.18
2022-11-29T01:37:38.079Z,10.18
2022-11-29T01:38:42.231Z,10.18
2022-11-29T01:39:43.759Z,10.18
2022-11-29T01:40:46.802Z,10.18
2022-11-29T01:41:49.280Z,10.19
2022-11-29T01:42:50.764Z,10.19
2022-11-29T01:44:01.112Z,10.19
2022-11-29T01:45:19.463Z,10.18
2022-11-29T01:46:22.277Z,10.19
2022-11-29T01:47:23.855Z,10.19
2022-11-29T01:48:30.746Z,10.19
2022-11-29T01:49:35.795Z,10.18
2022-11-29T01:50:38.935Z,10.17
2022-11-29T01:51:44.993Z,10.16
2022-11-29T01:52:48.640Z,10.15
2022-11-29T01:53:50.257Z,10.14
2022-11-29T01:54:57.642Z,10.14
2022-11-29T01:56:03.976Z,10.12
2022-11-29T01:57:08.346Z,10.12
2022-11-29T01:58:09.939Z,10.11
2022-11-29T01:59:16.625Z,10.11
2022-11-29T02:00:19.662Z,10.12
2022-11-29T02:01:22.259Z,10.12
2022-11-29T02:02:35.404Z,10.11
2022-11-29T02:03:38.128Z,10.12
2022-11-29T02:04:43.253Z,10.12
2022-11-29T02:05:49.806Z,10.12
2022-11-29T02:06:51.347Z,10.12
2022-11-29T02:07:57.473Z,10.12
2022-11-29T02:08:59.127Z,10.13
2022-11-29T02:10:02.901Z,10.13
2022-11-29T02:11:31.249Z,10.12
2022-11-29T02:12:44.425Z,10.11
2022-11-29T02:13:57.631Z,10.11
2022-11-29T02:15:15.800Z,10.09
2022-11-29T02:16:24.525Z,10.12
2022-11-29T02:17:33.914Z,10.11
2022-11-29T02:18:51.745Z,10.11
2022-11-29T02:20:35.886Z,10.11
2022-11-29T02:21:47.056Z,10.12
2022-11-29T02:22:56.508Z,10.10
2022-11-29T02:24:24.222Z,10.11
2022-11-29T02:25:44.914Z,10.12
2022-11-29T02:27:26.274Z,10.12
2022-11-29T02:28:49.788Z,10.12
2022-11-29T02:30:14.001Z,10.14
2022-11-29T02:31:45.855Z,10.13
2022-11-29T02:33:13.740Z,10.12
2022-11-29T02:34:50.854Z,10.13
2022-11-29T02:36:11.256Z,10.13
2022-11-29T02:37:42.449Z,10.12
2022-11-29T02:39:15.244Z,10.12
2022-11-29T02:40:38.347Z,10.13
2022-11-29T02:41:55.339Z,10.12
2022-11-29T02:43:19.288Z,10.12
2022-11-29T02:44:45.964Z,10.13
2022-11-29T02:46:03.213Z,10.13
2022-11-29T02:47:17.494Z,10.12
2022-11-29T02:48:35.266Z,10.13
2022-11-29T02:49:57.999Z,10.13
2022-11-29T02:51:06.943Z,10.14
2022-11-29T02:52:18.214Z,10.15
2022-11-29T02:53:27.928Z,10.15
2022-11-29T02:54:37.494Z,10.15
2022-11-29T02:55:47.288Z,10.16
2022-11-29T02:59:52.448Z,10.15
2022-11-29T03:01:02.833Z,10.16
2022-11-29T03:02:15.239Z,10.15
2022-11-29T03:03:23.868Z,10.14
2022-11-29T03:04:32.601Z,10.14
2022-11-29T03:05:41.771Z,10.15
2022-11-29T03:06:52.281Z,10.17
2022-11-29T03:08:00.664Z,10.17
2022-11-29T03:09:12.527Z,10.17
2022-11-29T03:10:28.511Z,10.18
2022-11-29T03:11:38.975Z,10.18
2022-11-29T03:12:43.638Z,10.18
2022-11-29T03:13:56.792Z,10.19
2022-11-29T03:15:11.935Z,10.20
2022-11-29T03:16:24.374Z,10.20
2022-11-29T03:17:35.390Z,10.19
2022-11-29T03:18:50.771Z,10.18
2022-11-29T03:20:05.920Z,10.19
2022-11-29T03:21:23.754Z,10.19
2022-11-29T03:22:38.145Z,10.20
2022-11-29T03:23:47.391Z,10.21
2022-11-29T03:24:56.876Z,10.21
2022-11-29T03:26:07.343Z,10.22
2022-11-29T03:27:13.255Z,10.24
2022-11-29T03:28:20.167Z,10.25
2022-11-29T03:29:28.006Z,10.25
2022-11-29T03:30:32.341Z,10.27
2022-11-29T03:31:38.076Z,10.28
2022-11-29T03:32:47.349Z,10.28
2022-11-29T03:34:14.371Z,10.29
2022-11-29T03:35:22.311Z,10.28
2022-11-29T03:36:34.551Z,10.28
2022-11-29T03:37:45.934Z,10.27
2022-11-29T03:38:48.792Z,10.24
2022-11-29T03:39:52.997Z,10.26
2022-11-29T03:41:04.094Z,10.25
2022-11-29T03:42:11.231Z,10.25
2022-11-29T03:43:20.163Z,10.24
2022-11-29T03:44:27.671Z,10.23
2022-11-29T03:45:35.883Z,10.24
2022-11-29T03:46:44.179Z,10.24
2022-11-29T03:47:56.787Z,10.24
2022-11-29T03:49:03.078Z,10.24
2022-11-29T03:50:11.802Z,10.24
2022-11-29T03:51:17.938Z,10.24
2022-11-29T03:52:32.729Z,10.24
2022-11-29T03:53:41.850Z,10.24
2022-11-29T03:54:54.441Z,10.23
2022-11-29T03:56:00.338Z,10.23
2022-11-29T03:57:03.393Z,10.23
2022-11-29T03:58:21.071Z,10.22
2022-11-29T03:59:45.557Z,10.23
2022-11-29T04:01:07.505Z,10.21
2022-11-29T04:02:26.994Z,10.19
2022-11-29T04:03:46.259Z,10.21
2022-11-29T04:05:37.978Z,10.20
2022-11-29T04:06:49.641Z,10.19
2022-11-29T04:08:04.851Z,10.19
2022-11-29T04:09:32.509Z,10.18
2022-11-29T04:11:01.067Z,10.16
2022-11-29T04:12:30.050Z,10.16
2022-11-29T04:14:05.646Z,10.16
2022-11-29T04:15:33.600Z,10.17
2022-11-29T04:17:00.116Z,10.16
2022-11-29T04:18:33.828Z,10.16
2022-11-29T04:20:11.650Z,10.16
2022-11-29T04:21:31.364Z,10.16
2022-11-29T04:22:57.580Z,10.15
2022-11-29T04:24:22.066Z,10.14
2022-11-29T04:25:41.164Z,10.15
2022-11-29T04:27:16.420Z,10.16
2022-11-29T04:28:57.200Z,10.16
2022-11-29T04:30:06.619Z,10.16
2022-11-29T04:31:18.246Z,10.16
2022-11-29T04:32:41.795Z,10.15
2022-11-29T04:34:09.877Z,10.14
2022-11-29T04:35:29.691Z,10.14
2022-11-29T04:36:49.720Z,10.15
2022-11-29T04:38:14.450Z,10.15
2022-11-29T04:39:57.478Z,10.15
2022-11-29T04:41:19.785Z,10.15
2022-11-29T04:42:41.357Z,10.14
2022-11-29T04:44:02.564Z,10.13
2022-11-29T04:45:26.157Z,10.14
2022-11-29T04:46:53.083Z,10.13
2022-11-29T04:48:09.190Z,10.14
2022-11-29T04:49:26.723Z,10.14
2022-11-29T04:50:46.468Z,10.15
2022-11-29T04:52:02.455Z,10.14
2022-11-29T04:53:25.297Z,10.14
2022-11-29T04:54:34.512Z,10.15
2022-11-29T04:55:46.620Z,10.15
2022-11-29T04:56:53.623Z,10.15
2022-11-29T04:58:00.193Z,10.15
2022-11-29T04:59:08.639Z,10.15
2022-11-29T05:00:12.461Z,10.15
2022-11-29T05:01:24.093Z,10.15
2022-11-29T05:02:34.987Z,10.17
2022-11-29T05:03:41.794Z,10.17
2022-11-29T05:04:52.939Z,10.16
2022-11-29T05:06:02.695Z,10.18
2022-11-29T05:07:12.591Z,10.17
2022-11-29T05:08:27.478Z,10.17
2022-11-29T05:09:44.355Z,10.18
2022-11-29T05:10:56.287Z,10.17
2022-11-29T05:12:09.500Z,10.16
2022-11-29T05:13:18.897Z,10.15
2022-11-29T05:14:32.973Z,10.12
2022-11-29T05:15:49.737Z,10.11
2022-11-29T05:17:01.847Z,10.11
2022-11-29T05:18:15.048Z,10.09
2022-11-29T05:19:34.249Z,10.09
2022-11-29T05:20:46.095Z,10.09
2022-11-29T05:21:59.760Z,10.09
2022-11-29T05:23:18.826Z,10.10
2022-11-29T05:24:35.734Z,10.10
2022-11-29T05:25:45.773Z,10.10
2022-11-29T05:26:57.555Z,10.10
2022-11-29T05:28:10.371Z,10.10
2022-11-29T05:29:21.279Z,10.10
2022-11-29T05:30:24.739Z,10.10
2022-11-29T05:31:41.796Z,10.08
2022-11-29T05:32:57.534Z,10.08
2022-11-29T05:34:17.456Z,10.07
2022-11-29T05:35:47.408Z,10.06
2022-11-29T05:37:00.154Z,10.04
2022-11-29T05:38:12.507Z,10.01
2022-11-29T05:39:37.650Z,9.97
2022-11-29T05:40:46.324Z,9.92
2022-11-29T05:42:11.765Z,9.90
2022-11-29T05:43:37.727Z,9.89
2022-11-29T05:44:46.588Z,9.88
2022-11-29T05:45:55.649Z,9.87
2022-11-29T05:47:01.801Z,9.87
2022-11-29T05:48:09.042Z,9.86
2022-11-29T05:49:21.921Z,9.87
2022-11-29T05:50:29.681Z,9.86
2022-11-29T05:51:41.434Z,9.86
2022-11-29T05:52:51.767Z,9.85
2022-11-29T05:54:04.119Z,9.85
2022-11-29T05:55:20.510Z,9.85
2022-11-29T05:56:28.996Z,9.84
2022-11-29T05:57:42.522Z,9.86
2022-11-29T05:58:51.238Z,9.85
2022-11-29T05:59:54.153Z,9.85
2022-11-29T06:01:02.685Z,9.86
2022-11-29T06:02:22.740Z,9.87
2022-11-29T06:03:33.700Z,9.88
2022-11-29T06:04:55.938Z,9.89
2022-11-29T06:06:02.659Z,9.91
2022-11-29T06:07:14.161Z,9.92
2022-11-29T06:08:21.062Z,9.93
2022-11-29T06:09:29.266Z,9.94
2022-11-29T06:10:34.603Z,9.97
2022-11-29T06:11:43.252Z,9.97
2022-11-29T06:13:00.239Z,9.99
2022-11-29T06:14:09.631Z,10.00
2022-11-29T06:15:28.685Z,10.01
2022-11-29T06:16:51.327Z,10.02
2022-11-29T06:18:03.170Z,10.02
2022-11-29T06:19:33.255Z,10.02
2022-11-29T06:21:00.019Z,10.02
2022-11-29T06:22:20.786Z,10.03
2022-11-29T06:23:36.536Z,10.02
2022-11-29T06:24:52.507Z,10.03
2022-11-29T06:26:10.303Z,10.03
2022-11-29T06:27:35.181Z,10.02
2022-11-29T06:28:51.297Z,10.01
2022-11-29T06:30:03.095Z,10.02
2022-11-29T06:31:13.064Z,10.02
2022-11-29T06:32:25.144Z,10.03
2022-11-29T06:33:35.505Z,10.01
2022-11-29T06:34:46.133Z,10.01
2022-11-29T06:35:57.663Z,9.99
2022-11-29T06:37:04.737Z,9.97
2022-11-29T06:38:14.754Z,9.94
2022-11-29T06:39:16.723Z,9.93
2022-11-29T06:40:19.358Z,9.91
2022-11-29T06:41:23.680Z,9.90
2022-11-29T06:42:26.163Z,9.89
2022-11-29T06:43:28.338Z,9.88
2022-11-29T06:44:32.999Z,9.87
2022-11-29T06:45:34.987Z,9.88
2022-11-29T06:46:46.313Z,9.88
2022-11-29T06:47:55.046Z,9.88
2022-11-29T06:49:06.949Z,9.88
2022-11-29T06:50:27.756Z,9.87
2022-11-29T06:51:34.441Z,9.86
2022-11-29T06:52:44.727Z,9.85
2022-11-29T06:53:52.413Z,9.85
2022-11-29T06:55:07.559Z,9.85
2022-11-29T06:56:22.212Z,9.83
2022-11-29T06:57:32.113Z,9.83
2022-11-29T06:58:46.450Z,9.82
2022-11-29T07:00:03.492Z,9.81
2022-11-29T07:01:14.273Z,9.79
2022-11-29T07:02:40.832Z,9.78
2022-11-29T07:03:59.863Z,9.78
2022-11-29T07:05:12.300Z,9.76
2022-11-29T07:06:21.169Z,9.78
2022-11-29T07:07:24.898Z,9.78
2022-11-29T07:08:27.970Z,9.79
2022-11-29T07:09:34.103Z,9.79
2022-11-29T07:10:39.365Z,9.79
2022-11-29T07:11:42.358Z,9.78
2022-11-29T07:12:46.297Z,9.80
2022-11-29T07:13:48.374Z,9.79
2022-11-29T07:14:52.844Z,9.80
2022-11-29T07:16:04.160Z,9.81
2022-11-29T07:17:16.002Z,9.82
2022-11-29T07:18:29.159Z,9.81
2022-11-29T07:19:42.868Z,9.80
2022-11-29T07:20:57.559Z,9.79
2022-11-29T07:22:06.290Z,9.80
2022-11-29T07:23:19.027Z,9.79
2022-11-29T07:24:33.993Z,9.80
2022-11-29T07:25:44.242Z,9.78
2022-11-29T07:26:59.330Z,9.78
2022-11-29T07:28:10.894Z,9.78
2022-11-29T07:29:27.869Z,9.77
2022-11-29T07:30:38.770Z,9.76
2022-11-29T07:31:55.464Z,9.75
2022-11-29T07:33:09.042Z,9.73
2022-11-29T07:34:19.423Z,9.72
2022-11-29T07:35:30.280Z,9.69
2022-11-29T07:36:40.943Z,9.67
2022-11-29T07:37:57.726Z,9.68
2022-11-29T07:39:16.278Z,9.68
2022-11-29T07:40:25.103Z,9.69
2022-11-29T07:41:35.414Z,9.69
2022-11-29T07:42:46.207Z,9.71
2022-11-29T07:43:55.374Z,9.71
2022-11-29T07:45:07.266Z,9.72
2022-11-29T07:46:11.177Z,9.74
2022-11-29T07:47:13.411Z,9.75
2022-11-29T07:48:18.142Z,9.77
2022-11-29T07:49:20.611Z,9.77
2022-11-29T07:50:22.335Z,9.78
2022-11-29T07:51:24.909Z,9.80
2022-11-29T07:52:26.660Z,9.80
2022-11-29T07:53:30.244Z,9.81
2022-11-29T07:54:31.818Z,9.81
2022-11-29T07:55:36.018Z,9.81
2022-11-29T07:56:37.514Z,9.81
2022-11-29T07:57:39.951Z,9.80
2022-11-29T07:58:42.682Z,9.81
2022-11-29T07:59:44.470Z,9.81
2022-11-29T08:00:47.311Z,9.80
2022-11-29T08:01:50.323Z,9.81
2022-11-29T08:02:53.122Z,9.82
2022-11-29T08:03:54.631Z,9.83
2022-11-29T08:04:57.308Z,9.85
2022-11-29T08:05:59.957Z,9.83
2022-11-29T08:07:02.496Z,9.83
2022-11-29T08:08:04.272Z,9.82
2022-11-29T08:09:07.536Z,9.81
2022-11-29T08:10:12.018Z,9.81
2022-11-29T08:11:15.833Z,9.83
2022-11-29T08:12:18.396Z,9.83
2022-11-29T08:13:21.544Z,9.86
2022-11-29T08:14:24.482Z,9.88
2022-11-29T08:15:26.032Z,9.89
2022-11-29T08:16:28.672Z,9.90
2022-11-29T08:17:31.539Z,9.91
2022-11-29T08:18:34.256Z,9.92
2022-11-29T08:19:35.971Z,9.93
2022-11-29T08:20:39.135Z,9.93
2022-11-29T08:21:46.729Z,9.94
2022-11-29T08:22:54.213Z,9.94
2022-11-29T08:23:56.813Z,9.94
2022-11-29T08:24:59.787Z,9.94
2022-11-29T08:26:02.991Z,9.93
2022-11-29T08:27:05.475Z,9.94
2022-11-29T08:28:07.199Z,9.94
2022-11-29T08:29:09.775Z,9.95
2022-11-29T08:30:11.677Z,9.96
2022-11-29T08:31:14.704Z,9.97
2022-11-29T08:32:16.594Z,9.97
2022-11-29T08:33:20.608Z,9.97
2022-11-29T08:34:23.069Z,9.98
2022-11-29T08:35:25.659Z,9.99
2022-11-29T08:36:27.319Z,10.00
2022-11-29T08:37:29.811Z,10.01
2022-11-29T08:38:32.320Z,10.01
2022-11-29T08:39:34.832Z,10.01
2022-11-29T08:40:36.369Z,10.01
2022-11-29T08:41:39.134Z,10.02
2022-11-29T08:42:41.694Z,10.02
2022-11-29T08:43:44.925Z,10.04
2022-11-29T08:44:48.024Z,10.02
2022-11-29T08:45:52.054Z,10.04
2022-11-29T08:47:12.074Z,10.04
2022-11-29T08:48:15.065Z,10.04
2022-11-29T08:49:18.790Z,10.04
2022-11-29T08:50:21.423Z,10.04
2022-11-29T08:51:22.948Z,10.06
2022-11-29T08:52:43.377Z,10.05
2022-11-29T08:53:51.613Z,10.06
2022-11-29T08:54:53.262Z,10.08
2022-11-29T08:56:00.160Z,10.09
2022-11-29T08:57:38.152Z,10.10
2022-11-29T08:58:25.619Z,10.11
2022-11-29T08:59:28.089Z,10.10
2022-11-29T09:00:30.881Z,10.11
2022-11-29T09:01:33.684Z,10.12
2022-11-29T09:02:35.945Z,10.12
2022-11-29T09:03:56.255Z,10.13
2022-11-29T09:05:00.096Z,10.15
2022-11-29T09:06:12.012Z,10.15
2022-11-29T09:07:16.012Z,10.17
2022-11-29T09:08:19.095Z,10.16
2022-11-29T09:09:21.874Z,10.17
2022-11-29T09:10:24.392Z,10.17
2022-11-29T09:11:28.835Z,10.18
2022-11-29T09:12:30.806Z,10.21
2022-11-29T09:13:33.322Z,10.22
2022-11-29T09:14:35.977Z,10.23
2022-11-29T09:15:37.767Z,10.22
2022-11-29T09:16:40.599Z,10.23
2022-11-29T09:17:43.146Z,10.23
2022-11-29T09:18:51.293Z,10.24
2022-11-29T09:19:54.261Z,10.25
2022-11-29T09:20:59.232Z,10.26
2022-11-29T09:22:01.737Z,10.26
2022-11-29T09:23:04.238Z,10.27
2022-11-29T09:24:06.659Z,10.28
2022-11-29T09:25:10.185Z,10.25
2022-11-29T09:26:17.627Z,10.30
2022-11-29T09:27:20.122Z,10.31
2022-11-29T09:28:22.886Z,10.31
2022-11-29T09:29:25.428Z,10.30
2022-11-29T09:30:29.838Z,10.32
2022-11-29T09:31:35.443Z,10.32
2022-11-29T09:32:37.249Z,10.33
2022-11-29T09:33:40.509Z,10.33
2022-11-29T09:34:43.276Z,10.33
2022-11-29T09:35:45.325Z,10.33
2022-11-29T09:36:49.166Z,10.34
2022-11-29T09:37:51.799Z,10.34
2022-11-29T09:38:53.312Z,10.35
2022-11-29T09:39:55.773Z,10.36
2022-11-29T09:41:05.098Z,10.37
2022-11-29T09:42:19.976Z,10.38
2022-11-29T09:43:29.958Z,10.37
2022-11-29T09:44:42.079Z,10.34
2022-11-29T09:45:48.781Z,10.34
2022-11-29T09:47:02.463Z,10.34
2022-11-29T09:48:29.338Z,10.32
2022-11-29T09:49:48.168Z,10.34
2022-11-29T09:50:54.959Z,10.33
2022-11-29T09:52:05.621Z,10.33
2022-11-29T09:53:27.953Z,10.34
2022-11-29T09:54:36.814Z,10.35
2022-11-29T09:55:55.718Z,10.35
2022-11-29T09:56:58.344Z,10.37
2022-11-29T09:58:03.696Z,10.38
2022-11-29T09:59:11.769Z,10.39
2022-11-29T10:00:16.596Z,10.39
2022-11-29T10:01:24.231Z,10.41
2022-11-29T10:02:37.342Z,10.40
2022-11-29T10:03:44.448Z,10.42
2022-11-29T10:04:51.592Z,10.42
2022-11-29T10:05:59.480Z,10.43
2022-11-29T10:07:07.574Z,10.44
2022-11-29T10:08:19.428Z,10.45
2022-11-29T10:09:29.563Z,10.46
2022-11-29T10:10:41.501Z,10.48
2022-11-29T10:11:56.447Z,10.49
2022-11-29T10:13:04.822Z,10.49
2022-11-29T10:14:15.147Z,10.48
2022-11-29T10:15:22.457Z,10.51
2022-11-29T10:16:29.587Z,10.51
2022-11-29T10:17:37.869Z,10.52
2022-11-29T10:18:46.237Z,10.52
2022-11-29T10:19:53.733Z,10.52
2022-11-29T10:20:58.937Z,10.52
2022-11-29T10:22:06.946Z,10.52
2022-11-29T10:23:17.034Z,10.52
2022-11-29T10:24:23.803Z,10.53
2022-11-29T10:25:30.563Z,10.52
2022-11-29T10:26:35.501Z,10.53
2022-11-29T10:27:41.182Z,10.53
2022-11-29T10:28:47.372Z,10.54
2022-11-29T10:29:51.178Z,10.54
2022-11-29T10:30:54.649Z,10.55
2022-11-29T10:31:59.219Z,10.57
2022-11-29T10:33:02.544Z,10.58
2022-11-29T10:34:13.854Z,10.58
2022-11-29T10:35:18.998Z,10.58
2022-11-29T10:36:28.679Z,10.58
2022-11-29T10:37:32.669Z,10.59
2022-11-29T10:38:34.221Z,10.60
2022-11-29T10:39:42.040Z,10.60
2022-11-29T10:40:49.900Z,10.61
2022-11-29T10:41:56.547Z,10.62
2022-11-29T10:42:58.261Z,10.62
2022-11-29T10:44:01.882Z,10.62
2022-11-29T10:45:08.668Z,10.64
2022-11-29T10:46:16.094Z,10.64
2022-11-29T10:47:17.796Z,10.65
2022-11-29T10:48:22.878Z,10.65
2022-11-29T10:49:29.106Z,10.68
2022-11-29T10:50:33.758Z,10.68
2022-11-29T10:51:36.323Z,10.70
2022-11-29T10:52:39.382Z,10.73
2022-11-29T10:53:41.882Z,10.73
2022-11-29T10:54:45.848Z,10.71
2022-11-29T10:55:54.214Z,10.73
2022-11-29T10:56:57.212Z,10.71
2022-11-29T10:58:15.918Z,10.72
2022-11-29T10:59:23.366Z,10.71
2022-11-29T11:00:27.759Z,10.72
2022-11-29T11:01:32.318Z,10.73
2022-11-29T11:02:34.740Z,10.75
2022-11-29T11:03:39.930Z,10.75
2022-11-29T11:04:46.422Z,10.80
2022-11-29T11:06:00.106Z,10.80
2022-11-29T11:07:05.025Z,10.81
2022-11-29T11:08:17.421Z,10.83
2022-11-29T11:09:22.449Z,10.84
2022-11-29T11:10:27.554Z,10.84
2022-11-29T11:11:32.401Z,10.85
2022-11-29T11:12:36.827Z,10.83
2022-11-29T11:13:40.806Z,10.84
2022-11-29T11:14:45.565Z,10.83
2022-11-29T11:15:47.378Z,10.82
2022-11-29T11:16:50.175Z,10.81
2022-11-29T11:17:57.651Z,10.79
2022-11-29T11:19:30.456Z,10.77
2022-11-29T11:20:35.634Z,10.75
2022-11-29T11:21:40.263Z,10.76
2022-11-29T11:22:41.774Z,10.76
2022-11-29T11:23:55.631Z,10.74
2022-11-29T11:25:00.078Z,10.74
2022-11-29T11:26:05.344Z,10.74
2022-11-29T11:27:08.181Z,10.74
2022-11-29T11:28:20.308Z,10.74
2022-11-29T11:29:26.549Z,10.75
2022-11-29T11:30:29.309Z,10.77
2022-11-29T11:31:35.374Z,10.79
2022-11-29T11:32:37.963Z,10.79
2022-11-29T11:33:41.364Z,10.80
2022-11-29T11:34:52.506Z,10.82
2022-11-29T11:36:12.238Z,10.82
2022-11-29T11:37:21.535Z,10.83
2022-11-29T11:38:24.269Z,10.85
2022-11-29T11:39:29.039Z,10.87
2022-11-29T11:40:32.721Z,10.86
2022-11-29T11:42:05.286Z,10.88
2022-11-29T11:43:19.815Z,10.88
2022-11-29T11:44:47.788Z,10.88
2022-11-29T11:45:54.353Z,10.87
2022-11-29T11:46:57.404Z,10.88
2022-11-29T11:48:02.904Z,10.86
2022-11-29T11:49:13.490Z,10.86
2022-11-29T11:50:25.992Z,10.85
2022-11-29T11:51:28.671Z,10.86
2022-11-29T11:52:40.686Z,10.87
2022-11-29T11:53:52.455Z,10.88
2022-11-29T11:55:01.016Z,10.89
2022-11-29T11:56:07.225Z,10.90
2022-11-29T11:57:17.042Z,10.90
2022-11-29T11:58:23.495Z,10.91
2022-11-29T11:59:28.037Z,10.92
2022-11-29T12:02:26.211Z,10.90
2022-11-29T12:03:43.165Z,10.90
2022-11-29T12:04:46.178Z,10.91
2022-11-29T12:05:49.797Z,10.94
2022-11-29T12:06:55.727Z,10.95
2022-11-29T12:08:09.021Z,10.96
2022-11-29T12:09:27.389Z,10.97
2022-11-29T12:10:34.688Z,10.98
2022-11-29T12:11:43.786Z,11.01
2022-11-29T12:12:48.512Z,11.03
2022-11-29T12:13:54.999Z,11.05
2022-11-29T12:15:00.851Z,11.05
2022-11-29T12:16:09.751Z,11.05
2022-11-29T12:17:20.350Z,11.03
2022-11-29T12:18:30.504Z,11.02
2022-11-29T12:19:41.119Z,11.01
2022-11-29T12:20:51.631Z,11.02
2022-11-29T12:22:00.733Z,11.02
2022-11-29T12:23:24.761Z,11.02
2022-11-29T12:24:31.798Z,11.03
2022-11-29T12:25:43.606Z,11.03
2022-11-29T12:26:56.981Z,11.06
2022-11-29T12:28:00.735Z,11.07
2022-11-29T12:29:03.540Z,11.06
2022-11-29T12:30:13.188Z,11.07
2022-11-29T12:31:34.313Z,11.07
2022-11-29T12:32:55.365Z,11.06
2022-11-29T12:34:09.053Z,11.05
2022-11-29T12:35:36.892Z,11.03
2022-11-29T12:36:47.924Z,11.02
2022-11-29T12:37:53.324Z,11.02
2022-11-29T12:39:09.439Z,11.02
2022-11-29T12:40:20.282Z,11.04
2022-11-29T12:41:38.080Z,11.06
2022-11-29T12:42:46.299Z,11.06
2022-11-29T12:43:59.866Z,11.07
2022-11-29T12:45:16.388Z,11.09
2022-11-29T12:46:24.295Z,11.10
2022-11-29T12:47:45.188Z,11.11
2022-11-29T12:48:59.917Z,11.14
2022-11-29T12:50:11.725Z,11.13
2022-11-29T12:51:23.405Z,11.14
2022-11-29T12:52:33.074Z,11.13
2022-11-29T12:53:51.833Z,11.12
2022-11-29T12:55:05.105Z,11.12
2022-11-29T12:56:16.113Z,11.10
2022-11-29T12:57:29.237Z,11.11
2022-11-29T12:58:44.233Z,11.09
2022-11-29T13:00:09.210Z,11.09
2022-11-29T13:01:20.190Z,11.09
2022-11-29T13:02:31.961Z,11.09
2022-11-29T13:03:44.667Z,11.09
2022-11-29T13:04:59.734Z,11.11
2022-11-29T13:06:17.508Z,11.10
2022-11-29T13:07:29.208Z,11.11
2022-11-29T13:08:48.829Z,11.11
2022-11-29T13:10:17.810Z,11.09
2022-11-29T13:11:25.984Z,11.08
2022-11-29T13:12:36.183Z,11.08
2022-11-29T13:13:41.671Z,11.06
2022-11-29T13:14:51.848Z,11.07
2022-11-29T13:16:04.413Z,11.07
2022-11-29T13:17:22.949Z,11.06
2022-11-29T13:18:33.308Z,11.06
2022-11-29T13:19:43.531Z,11.04
2022-11-29T13:20:52.682Z,11.04
2022-11-29T13:22:02.788Z,11.01
2022-11-29T13:23:15.921Z,11.00
2022-11-29T13:24:25.591Z,11.01
2022-11-29T13:25:33.317Z,11.00
2022-11-29T13:26:39.576Z,11.01
2022-11-29T13:27:54.760Z,11.02
2022-11-29T13:28:58.123Z,11.02
2022-11-29T13:30:01.888Z,11.03
2022-11-29T13:31:08.913Z,11.04
2022-11-29T13:32:30.637Z,11.04
2022-11-29T13:33:52.233Z,11.06
2022-11-29T13:34:59.818Z,11.05
2022-11-29T13:36:13.048Z,11.04
2022-11-29T13:37:24.329Z,11.03
2022-11-29T13:38:32.524Z,11.03
2022-11-29T13:39:50.853Z,11.01
2022-11-29T13:41:00.235Z,11.01
2022-11-29T13:42:11.157Z,10.98
2022-11-29T13:43:22.643Z,10.97
2022-11-29T13:44:33.560Z,10.96
2022-11-29T13:45:42.688Z,10.94
2022-11-29T13:46:50.984Z,10.92
2022-11-29T13:47:55.908Z,10.90
2022-11-29T13:48:58.687Z,10.89
2022-11-29T13:50:02.476Z,10.89
2022-11-29T13:51:24.573Z,10.89
2022-11-29T13:52:38.432Z,10.87
2022-11-29T13:53:48.830Z,10.85
2022-11-29T13:55:05.963Z,10.85
2022-11-29T13:56:15.102Z,10.83
2022-11-29T13:57:17.718Z,10.83
2022-11-29T13:58:40.965Z,10.82
2022-11-29T13:59:49.447Z,10.80
2022-11-29T14:00:52.799Z,10.79
2022-11-29T14:01:56.871Z,10.78
2022-11-29T14:03:36.796Z,10.77
2022-11-29T14:04:45.973Z,10.77
2022-11-29T14:05:49.486Z,10.75
2022-11-29T14:07:03.362Z,10.73
2022-11-29T14:08:26.305Z,10.71
2022-11-29T14:09:33.438Z,10.69
2022-11-29T14:10:36.282Z,10.70
2022-11-29T14:11:48.617Z,10.71
2022-11-29T14:12:55.484Z,10.71
2022-11-29T14:14:05.072Z,10.73
2022-11-29T14:15:22.341Z,10.71
2022-11-29T14:16:31.470Z,10.71
2022-11-29T14:17:46.335Z,10.72
2022-11-29T14:19:04.629Z,10.72
2022-11-29T14:20:50.111Z,10.69
2022-11-29T14:22:23.141Z,10.68
2022-11-29T14:23:38.021Z,10.67
2022-11-29T14:24:40.781Z,10.65
2022-11-29T14:26:03.866Z,10.65
2022-11-29T14:27:54.261Z,10.65
2022-11-29T14:28:59.474Z,10.64
2022-11-29T14:30:01.024Z,10.63
2022-11-29T14:31:04.625Z,10.61
2022-11-29T14:32:23.327Z,10.60
2022-11-29T14:33:58.595Z,10.59
2022-11-29T14:35:06.047Z,10.59
2022-11-29T14:36:21.279Z,10.57
2022-11-29T14:37:36.226Z,10.57
2022-11-29T14:38:46.639Z,10.58
2022-11-29T14:39:52.927Z,10.58
2022-11-29T14:41:02.022Z,10.58
2022-11-29T14:42:14.449Z,10.58
2022-11-29T14:43:23.043Z,10.58
2022-11-29T14:44:29.322Z,10.58
2022-11-29T14:45:35.025Z,10.59
2022-11-29T14:46:36.721Z,10.58
2022-11-29T14:47:49.170Z,10.59
2022-11-29T14:48:59.991Z,10.59
2022-11-29T14:50:07.307Z,10.58
2022-11-29T14:51:11.465Z,10.57
2022-11-29T14:52:27.176Z,10.57
2022-11-29T14:53:34.162Z,10.56
2022-11-29T14:54:54.337Z,10.56
2022-11-29T14:56:34.923Z,10.57
2022-11-29T14:58:13.576Z,10.58
2022-11-29T14:59:52.310Z,10.58
2022-11-29T15:01:10.624Z,10.56
2022-11-29T15:02:25.955Z,10.55
2022-11-29T15:03:33.881Z,10.54
2022-11-29T15:04:39.151Z,10.54
2022-11-29T15:05:45.060Z,10.55
2022-11-29T15:06:53.137Z,10.54
2022-11-29T15:08:07.260Z,10.56
2022-11-29T15:09:17.907Z,10.54
2022-11-29T15:10:25.190Z,10.54
2022-11-29T15:11:35.004Z,10.55